Time;durP1;ratioP1;P1;durP2;ratioP2;P2;SDS_P1;SDS_P2;PMS_P1;PMS_P2;Temp;Humidity;BMP_temperature;BMP_pressure;BME280_temperature;BME280_humidity;BME280_pressure;Samples;Min_cycle;Max_cycle;Signal;HPM_P1;HPM_P2
2023/06/06 00:01:21;;;;;;;13.65;7.05;;;18.00;74.50;;;;;;4864363;29;20144;-95
2023/06/06 00:03:48;;;;;;;13.23;6.72;;;18.00;74.80;;;;;;4848715;29;20053;-94
2023/06/06 00:06:21;;;;;;;14.95;6.65;;;18.00;74.80;;;;;;4849152;29;20472;-94
2023/06/06 00:08:50;;;;;;;13.97;7.70;;;18.00;75.00;;;;;;4848849;29;20071;-95
2023/06/06 00:11:17;;;;;;;17.02;7.57;;;18.00;75.10;;;;;;4848702;29;20056;-94
2023/06/06 00:13:49;;;;;;;15.18;7.32;;;17.90;75.40;;;;;;4848675;29;20053;-94
2023/06/06 00:16:18;;;;;;;12.18;6.90;;;17.80;75.40;;;;;;4848654;29;20053;-94
2023/06/06 00:18:45;;;;;;;12.57;6.85;;;17.90;75.20;;;;;;4863906;29;20053;-95
2023/06/06 00:21:12;;;;;;;12.77;6.73;;;17.90;75.20;;;;;;4848957;29;20057;-95
2023/06/06 00:23:40;;;;;;;12.82;6.63;;;17.90;75.20;;;;;;4879801;29;20053;-96
2023/06/06 00:26:08;;;;;;;15.45;7.72;;;17.90;75.20;;;;;;4848976;29;20049;-94
2023/06/06 00:28:36;;;;;;;13.25;6.47;;;17.90;75.20;;;;;;4863808;29;20094;-94
2023/06/06 00:31:04;;;;;;;13.60;7.25;;;17.90;75.20;;;;;;4848525;29;20526;-95
2023/06/06 00:33:31;;;;;;;13.27;6.97;;;18.00;75.20;;;;;;4863794;29;20041;-94
2023/06/06 00:35:58;;;;;;;13.52;6.68;;;18.00;74.90;;;;;;4848910;29;20052;-94
2023/06/06 00:38:25;;;;;;;13.40;6.95;;;18.00;74.90;;;;;;4848698;29;20049;-94
2023/06/06 00:40:53;;;;;;;12.65;6.88;;;18.00;74.90;;;;;;4848613;29;20053;-94
2023/06/06 00:43:20;;;;;;;12.40;6.47;;;17.90;74.90;;;;;;4849358;29;20060;-95
2023/06/06 00:45:47;;;;;;;12.33;6.97;;;17.90;75.00;;;;;;4848654;29;20053;-95
2023/06/06 00:48:16;;;;;;;13.95;6.95;;;17.90;74.80;;;;;;4848469;29;20048;-94
2023/06/06 00:50:44;;;;;;;14.75;6.65;;;17.90;74.90;;;;;;4848650;29;20516;-95
2023/06/06 00:53:11;;;;;;;11.07;6.10;;;17.90;74.90;;;;;;4848551;29;20389;-95
2023/06/06 00:55:39;;;;;;;11.55;5.88;;;17.90;74.90;;;;;;4848685;29;20097;-94
2023/06/06 00:58:06;;;;;;;12.43;7.00;;;17.90;74.90;;;;;;4851083;29;20411;-95
2023/06/06 01:00:34;;;;;;;14.60;6.80;;;17.90;74.80;;;;;;4867022;29;20143;-94
2023/06/06 01:03:08;;;;;;;11.00;6.63;;;17.90;74.70;;;;;;4866843;29;20056;-94
2023/06/06 01:05:37;;;;;;;12.60;6.82;;;17.80;74.50;;;;;;4851555;29;20151;-94
2023/06/06 01:08:05;;;;;;;12.35;6.35;;;17.80;74.30;;;;;;4852314;29;20049;-94
2023/06/06 01:10:35;;;;;;;11.87;6.03;;;17.80;74.40;;;;;;4851448;29;20049;-94
2023/06/06 01:13:20;;;;;;;13.10;6.10;;;17.80;74.40;;;;;;4851559;29;20124;-94
2023/06/06 01:16:07;;;;;;;14.50;6.20;;;17.70;74.40;;;;;;4851530;29;20492;-94
2023/06/06 01:18:37;;;;;;;9.82;6.00;;;17.60;74.60;;;;;;4851696;29;20144;-94
2023/06/06 01:21:05;;;;;;;10.95;5.82;;;17.50;74.60;;;;;;4851386;29;20101;-94
2023/06/06 01:23:34;;;;;;;15.50;6.43;;;17.50;74.40;;;;;;4851572;29;20053;-94
2023/06/06 01:26:06;;;;;;;14.85;7.65;;;17.50;74.50;;;;;;4851323;29;20056;-94
2023/06/06 01:28:33;;;;;;;11.85;6.63;;;17.50;74.70;;;;;;4851060;29;20049;-95
2023/06/06 01:31:00;;;;;;;13.23;6.55;;;17.50;74.80;;;;;;4851904;29;20476;-94
2023/06/06 01:33:43;;;;;;;12.38;6.35;;;17.40;74.60;;;;;;4851193;29;20432;-94
2023/06/06 01:36:22;;;;;;;12.40;6.77;;;17.40;74.60;;;;;;4851085;29;20037;-95
2023/06/06 01:39:24;;;;;;;13.10;7.22;;;17.40;74.60;;;;;;4851574;29;20053;-94
2023/06/06 01:41:55;;;;;;;10.73;5.95;;;17.20;75.60;;;;;;4818761;29;20132;-94
2023/06/06 01:44:25;;;;;;;12.73;6.22;;;17.10;75.80;;;;;;4866091;29;20109;-93
2023/06/06 01:46:54;;;;;;;11.38;6.15;;;17.10;75.70;;;;;;4851537;29;20063;-95
2023/06/06 01:49:25;;;;;;;12.67;6.07;;;17.10;75.70;;;;;;4851107;29;20441;-95
2023/06/06 01:51:53;;;;;;;30.27;7.63;;;17.10;75.70;;;;;;4851021;29;20108;-94
2023/06/06 01:54:21;;;;;;;18.52;6.22;;;17.10;75.80;;;;;;4850835;29;20101;-95
2023/06/06 01:56:50;;;;;;;12.30;6.32;;;17.10;75.50;;;;;;4850900;29;20056;-95
2023/06/06 01:59:17;;;;;;;13.98;6.28;;;17.10;75.60;;;;;;4850784;29;20108;-95
2023/06/06 02:01:44;;;;;;;13.53;7.23;;;17.20;75.70;;;;;;4850555;29;20057;-95
2023/06/06 02:04:12;;;;;;;12.43;6.30;;;17.20;75.80;;;;;;4851016;29;20392;-95
2023/06/06 02:06:39;;;;;;;12.50;6.63;;;17.10;75.60;;;;;;4850539;29;20076;-95
2023/06/06 02:09:07;;;;;;;10.77;5.70;;;17.10;75.40;;;;;;4850345;29;20504;-95
2023/06/06 02:11:36;;;;;;;11.65;6.28;;;17.20;75.50;;;;;;4850750;29;20053;-95
2023/06/06 02:14:03;;;;;;;11.37;6.50;;;17.10;75.50;;;;;;4850525;29;20045;-95
2023/06/06 02:16:31;;;;;;;11.15;6.88;;;17.20;75.60;;;;;;4850651;29;20093;-95
2023/06/06 02:18:59;;;;;;;11.15;6.10;;;17.20;75.60;;;;;;4850451;29;20053;-96
2023/06/06 02:21:26;;;;;;;12.05;6.40;;;17.10;75.80;;;;;;4850784;29;20059;-95
2023/06/06 02:23:53;;;;;;;12.23;6.60;;;17.10;76.10;;;;;;4865856;29;20044;-94
2023/06/06 02:26:21;;;;;;;13.77;6.60;;;17.10;75.90;;;;;;4850352;29;20117;-94
2023/06/06 02:28:48;;;;;;;11.60;6.50;;;17.10;76.10;;;;;;4850493;29;20144;-94
2023/06/06 02:31:16;;;;;;;11.98;6.70;;;17.10;76.20;;;;;;4850338;29;20481;-94
2023/06/06 02:33:44;;;;;;;11.18;6.50;;;17.00;76.40;;;;;;4866145;29;20056;-93
2023/06/06 02:36:14;;;;;;;12.15;6.82;;;17.00;76.60;;;;;;4850273;29;20397;-93
2023/06/06 02:38:42;;;;;;;11.50;6.47;;;16.90;76.70;;;;;;4865424;29;20060;-94
2023/06/06 02:41:13;;;;;;;13.77;7.40;;;16.90;76.80;;;;;;4850276;29;20048;-94
2023/06/06 02:43:42;;;;;;;13.45;6.95;;;16.90;76.80;;;;;;4865230;29;20144;-95
2023/06/06 02:46:09;;;;;;;12.27;6.53;;;17.00;76.80;;;;;;4850590;29;20508;-95
2023/06/06 02:48:37;;;;;;;11.05;6.45;;;16.90;76.90;;;;;;4850036;29;20049;-94
2023/06/06 02:51:04;;;;;;;13.63;7.07;;;17.00;76.70;;;;;;4865468;29;20136;-94
2023/06/06 02:53:32;;;;;;;12.75;6.45;;;16.90;76.50;;;;;;4849825;29;20049;-94
2023/06/06 02:55:59;;;;;;;14.10;7.53;;;17.00;76.40;;;;;;4850045;29;20495;-95
2023/06/06 02:58:30;;;;;;;15.57;7.43;;;17.00;76.60;;;;;;4849941;29;20086;-95
2023/06/06 03:00:58;;;;;;;12.13;6.43;;;17.00;76.70;;;;;;4849728;29;20190;-96
2023/06/06 03:03:26;;;;;;;12.13;6.33;;;17.00;76.50;;;;;;4849698;29;20053;-94
2023/06/06 03:05:54;;;;;;;13.88;6.38;;;17.00;76.60;;;;;;4849806;29;20627;-94
2023/06/06 03:08:25;;;;;;;12.95;6.43;;;17.00;76.40;;;;;;4850153;29;20056;-94
2023/06/06 03:10:52;;;;;;;12.32;6.30;;;17.00;76.40;;;;;;4865098;29;20426;-94
2023/06/06 03:13:20;;;;;;;10.60;6.10;;;17.00;76.00;;;;;;4849754;29;20136;-95
2023/06/06 03:15:48;;;;;;;10.83;6.03;;;17.00;76.20;;;;;;4849926;29;20041;-94
2023/06/06 03:18:20;;;;;;;13.30;5.82;;;17.00;76.20;;;;;;4849455;29;20053;-94
2023/06/06 03:20:56;;;;;;;16.80;6.30;;;17.00;76.40;;;;;;4849911;29;20053;-94
2023/06/06 03:23:26;;;;;;;10.90;5.70;;;17.00;76.50;;;;;;4850092;29;20045;-94
2023/06/06 03:25:54;;;;;;;10.90;6.07;;;16.90;76.50;;;;;;4864927;29;20045;-94
2023/06/06 03:28:22;;;;;;;12.40;6.00;;;16.90;76.50;;;;;;4851066;29;20037;-94
2023/06/06 03:30:51;;;;;;;13.25;6.30;;;17.00;76.30;;;;;;4849654;29;20522;-93
2023/06/06 03:33:18;;;;;;;13.60;6.45;;;17.00;76.20;;;;;;4849480;29;20052;-93
2023/06/06 03:35:46;;;;;;;13.10;6.53;;;17.00;76.30;;;;;;4864457;29;20135;-93
2023/06/06 03:38:14;;;;;;;48.17;7.90;;;17.00;76.50;;;;;;4849547;29;20057;-94
2023/06/06 03:40:42;;;;;;;19.00;6.20;;;17.00;76.40;;;;;;4879900;29;20077;-93
2023/06/06 03:43:10;;;;;;;13.07;5.90;;;16.90;76.50;;;;;;4864245;29;20056;-93
2023/06/06 03:45:40;;;;;;;11.25;5.57;;;16.90;76.40;;;;;;4849970;29;20526;-94
2023/06/06 03:48:12;;;;;;;15.15;5.93;;;16.90;75.90;;;;;;4849346;29;20389;-93
2023/06/06 03:50:41;;;;;;;11.65;5.63;;;17.00;75.90;;;;;;4835515;29;20049;-93
2023/06/06 03:53:08;;;;;;;16.77;6.13;;;17.00;76.00;;;;;;4849307;29;20121;-93
2023/06/06 03:55:38;;;;;;;11.85;6.13;;;17.10;76.20;;;;;;4849690;29;20101;-90
2023/06/06 03:58:08;;;;;;;12.25;6.50;;;17.10;76.10;;;;;;4849422;29;20052;-96
2023/06/06 04:00:35;;;;;;;11.82;5.75;;;17.10;76.20;;;;;;4850185;29;20052;-93
2023/06/06 04:03:05;;;;;;;13.25;6.30;;;17.20;76.10;;;;;;4849699;29;20073;-94
2023/06/06 04:05:33;;;;;;;10.87;6.23;;;17.20;76.40;;;;;;4850091;29;20061;-94
2023/06/06 04:08:01;;;;;;;13.75;6.20;;;17.20;76.50;;;;;;4849156;29;20049;-95
2023/06/06 04:10:31;;;;;;;12.48;6.38;;;17.30;76.00;;;;;;4850368;29;20051;-94
2023/06/06 04:13:00;;;;;;;11.95;6.05;;;17.30;75.90;;;;;;4849481;29;20041;-94
2023/06/06 04:15:30;;;;;;;12.38;6.10;;;17.30;75.70;;;;;;4848887;29;20045;-94
2023/06/06 04:17:57;;;;;;;11.63;6.23;;;17.30;75.80;;;;;;4849321;29;20053;-93
2023/06/06 04:20:26;;;;;;;13.55;6.30;;;17.40;75.80;;;;;;4863994;29;20075;-94
2023/06/06 04:22:54;;;;;;;11.55;6.90;;;17.40;75.90;;;;;;4879579;29;20052;-94
2023/06/06 04:25:21;;;;;;;12.38;7.25;;;17.50;75.50;;;;;;4848986;29;20571;-94
2023/06/06 04:27:50;;;;;;;13.75;7.32;;;17.50;75.40;;;;;;4848934;29;20045;-94
2023/06/06 04:30:23;;;;;;;12.77;6.70;;;17.50;75.50;;;;;;4848988;29;20048;-94
2023/06/06 04:32:53;;;;;;;12.80;6.45;;;17.40;76.00;;;;;;4852912;29;20527;-94
2023/06/06 04:35:22;;;;;;;12.48;6.30;;;17.40;75.90;;;;;;4852501;29;20045;-94
2023/06/06 04:37:53;;;;;;;12.93;6.13;;;17.40;76.00;;;;;;4852314;29;20045;-94
2023/06/06 04:40:24;;;;;;;11.70;6.47;;;17.40;75.80;;;;;;4852707;29;20095;-94
2023/06/06 04:42:57;;;;;;;16.43;7.03;;;17.40;76.40;;;;;;4852170;29;20053;-94
2023/06/06 04:45:24;;;;;;;10.27;6.22;;;17.50;76.10;;;;;;4852361;29;20053;-94
2023/06/06 04:47:55;;;;;;;12.85;6.57;;;17.50;76.00;;;;;;4852217;29;20053;-94
2023/06/06 04:50:23;;;;;;;14.52;7.30;;;17.50;75.90;;;;;;4852560;29;20049;-94
2023/06/06 04:52:50;;;;;;;12.15;6.55;;;17.50;76.00;;;;;;4852859;29;20049;-95
2023/06/06 04:55:18;;;;;;;14.13;6.77;;;17.60;75.80;;;;;;4853633;29;20053;-95
2023/06/06 04:57:45;;;;;;;14.35;7.25;;;17.70;75.90;;;;;;4852759;29;20056;-94
2023/06/06 05:00:13;;;;;;;14.38;7.03;;;17.70;76.10;;;;;;4852482;29;20052;-95
2023/06/06 05:02:40;;;;;;;12.93;7.18;;;17.70;76.00;;;;;;4852061;29;20491;-95
2023/06/06 05:05:09;;;;;;;15.55;8.43;;;17.70;76.20;;;;;;4852931;29;20148;-94
2023/06/06 05:07:38;;;;;;;15.47;7.80;;;17.70;76.30;;;;;;4861329;29;20059;-96
2023/06/06 05:10:06;;;;;;;15.60;8.73;;;17.70;76.00;;;;;;4862781;29;20068;-96
2023/06/06 05:12:33;;;;;;;23.70;8.95;;;17.70;75.80;;;;;;4862914;29;20077;-96
2023/06/06 05:15:07;;;;;;;21.20;11.07;;;17.70;76.00;;;;;;4878811;29;20049;-96
2023/06/06 05:17:36;;;;;;;20.27;9.68;;;17.80;75.70;;;;;;4873552;29;20055;-92
2023/06/06 05:20:10;;;;;;;27.50;13.57;;;17.80;75.80;;;;;;4852248;29;20464;-93
2023/06/06 05:22:37;;;;;;;25.27;11.77;;;17.80;75.70;;;;;;4866784;29;20059;-92
2023/06/06 05:25:05;;;;;;;18.92;10.82;;;17.90;76.00;;;;;;4866788;29;20063;-92
2023/06/06 05:27:32;;;;;;;17.75;9.63;;;17.80;75.90;;;;;;4866675;29;20049;-93
2023/06/06 05:30:01;;;;;;;22.42;9.65;;;17.90;75.80;;;;;;4851119;29;20052;-92
2023/06/06 05:32:31;;;;;;;15.03;7.70;;;17.90;75.80;;;;;;4851698;29;20521;-92
2023/06/06 05:35:03;;;;;;;15.57;7.97;;;18.00;75.40;;;;;;4851089;29;20474;-93
2023/06/06 05:37:30;;;;;;;14.52;7.10;;;18.00;75.20;;;;;;4851339;29;20044;-93
2023/06/06 05:39:57;;;;;;;16.52;7.35;;;18.00;75.50;;;;;;4851171;29;20080;-93
2023/06/06 05:42:24;;;;;;;18.13;8.63;;;18.00;75.50;;;;;;4865857;29;20136;-93
2023/06/06 05:44:51;;;;;;;19.17;9.50;;;18.10;75.30;;;;;;4851021;29;20078;-92
2023/06/06 05:47:18;;;;;;;18.92;9.63;;;18.20;74.80;;;;;;4866067;29;20056;-93
2023/06/06 05:49:46;;;;;;;25.27;13.80;;;18.30;74.70;;;;;;4851112;29;20049;-92
2023/06/06 05:52:13;;;;;;;23.50;12.68;;;18.40;73.90;;;;;;4851472;29;20040;-92
2023/06/06 05:54:40;;;;;;;22.50;13.15;;;18.50;73.50;;;;;;4850836;29;20488;-92
2023/06/06 05:57:22;;;;;;;31.17;14.97;;;18.60;73.50;;;;;;4865809;29;20060;-92
2023/06/06 05:59:49;;;;;;;29.00;13.52;;;18.60;74.00;;;;;;4850408;29;20053;-93
2023/06/06 06:02:16;;;;;;;27.83;13.95;;;18.60;73.70;;;;;;4850733;29;20499;-92
2023/06/06 06:04:52;;;;;;;29.20;11.93;;;18.70;74.10;;;;;;4850891;29;20053;-92
2023/06/06 06:07:22;;;;;;;20.70;11.48;;;18.70;74.30;;;;;;4850623;29;20065;-93
2023/06/06 06:09:49;;;;;;;21.33;12.07;;;18.70;74.50;;;;;;4865856;29;20500;-93
2023/06/06 06:12:16;;;;;;;22.02;13.38;;;18.60;74.80;;;;;;4850462;29;20049;-92
2023/06/06 06:14:43;;;;;;;21.60;11.95;;;18.60;74.80;;;;;;4850194;29;20106;-92
2023/06/06 06:17:10;;;;;;;20.42;11.50;;;18.60;74.70;;;;;;4865544;29;20084;-92
2023/06/06 06:19:37;;;;;;;23.77;12.73;;;18.60;75.20;;;;;;4865470;29;20083;-93
2023/06/06 06:22:05;;;;;;;19.30;12.07;;;18.60;75.20;;;;;;4850145;29;20052;-93
2023/06/06 06:24:32;;;;;;;21.48;12.00;;;18.60;75.10;;;;;;4850253;29;20060;-92
2023/06/06 06:26:59;;;;;;;26.80;13.05;;;18.60;75.30;;;;;;4865350;29;20468;-92
2023/06/06 06:29:26;;;;;;;22.88;13.48;;;18.70;74.90;;;;;;4850069;29;20519;-92
2023/06/06 06:31:53;;;;;;;25.95;13.82;;;18.70;74.60;;;;;;4865323;29;20060;-93
2023/06/06 06:34:21;;;;;;;25.90;11.90;;;18.80;74.70;;;;;;4850082;29;20045;-92
2023/06/06 06:36:48;;;;;;;25.92;13.75;;;18.80;74.80;;;;;;4850131;29;20069;-93
2023/06/06 06:39:18;;;;;;;23.80;13.27;;;19.00;74.40;;;;;;4849717;29;20453;-93
2023/06/06 06:41:46;;;;;;;24.48;13.10;;;19.00;74.10;;;;;;4849772;29;20057;-93
2023/06/06 06:44:13;;;;;;;25.63;13.10;;;19.10;74.00;;;;;;4864877;29;20147;-92
2023/06/06 06:46:40;;;;;;;26.43;13.20;;;19.10;73.60;;;;;;4849726;29;20073;-92
2023/06/06 06:49:14;;;;;;;24.85;12.30;;;19.20;73.40;;;;;;4864838;29;20059;-92
2023/06/06 06:51:42;;;;;;;16.67;9.35;;;19.30;73.60;;;;;;4865153;29;20053;-93
2023/06/06 06:54:13;;;;;;;16.40;8.30;;;19.30;73.10;;;;;;4848722;29;20045;-93
2023/06/06 06:56:43;;;;;;;13.85;8.23;;;19.20;72.60;;;;;;4849582;29;20049;-92
2023/06/06 06:59:10;;;;;;;15.30;8.07;;;19.10;72.10;;;;;;4849699;29;20080;-92
2023/06/06 07:01:37;;;;;;;14.88;8.88;;;19.10;72.80;;;;;;4849787;29;20571;-93
2023/06/06 07:04:06;;;;;;;16.00;8.95;;;19.20;72.90;;;;;;4849857;29;20105;-92
2023/06/06 07:06:33;;;;;;;17.30;9.35;;;19.30;71.80;;;;;;4849315;29;20060;-92
2023/06/06 07:09:04;;;;;;;15.82;8.70;;;19.50;71.80;;;;;;4849462;29;20571;-93
2023/06/06 07:11:31;;;;;;;16.10;9.80;;;19.50;71.50;;;;;;4849892;29;20060;-93
2023/06/06 07:13:58;;;;;;;22.88;11.50;;;19.80;71.30;;;;;;4849607;29;20097;-94
2023/06/06 07:16:25;;;;;;;19.05;11.60;;;19.90;70.20;;;;;;4864956;29;20049;-92
2023/06/06 07:18:53;;;;;;;21.25;10.73;;;19.90;69.40;;;;;;4850281;29;20116;-92
2023/06/06 07:21:21;;;;;;;18.52;11.50;;;20.00;70.10;;;;;;4849994;29;20053;-92
2023/06/06 07:23:49;;;;;;;22.17;10.70;;;20.10;69.70;;;;;;4849607;29;20049;-92
2023/06/06 07:26:17;;;;;;;21.67;12.45;;;20.10;69.10;;;;;;4849633;29;20576;-93
2023/06/06 07:28:45;;;;;;;46.92;12.65;;;20.20;68.80;;;;;;4865104;29;20066;-93
2023/06/06 07:31:16;;;;;;;21.42;10.63;;;20.30;69.90;;;;;;4850163;29;20496;-92
2023/06/06 07:33:44;;;;;;;20.48;10.93;;;20.40;68.80;;;;;;4850224;29;20053;-93
2023/06/06 07:36:12;;;;;;;23.10;11.30;;;20.40;68.50;;;;;;4850180;29;20530;-93
2023/06/06 07:38:39;;;;;;;19.10;9.50;;;20.50;68.00;;;;;;4865743;29;20529;-93
2023/06/06 07:41:34;;;;;;;20.27;9.90;;;20.50;67.70;;;;;;4849949;29;20108;-92
2023/06/06 07:44:09;;;;;;;17.98;9.25;;;20.60;67.50;;;;;;4851164;29;20053;-93
2023/06/06 07:46:36;;;;;;;20.27;9.23;;;20.60;66.90;;;;;;4850407;29;20049;-92
2023/06/06 07:49:04;;;;;;;20.60;9.13;;;20.60;66.80;;;;;;4850145;29;20104;-93
2023/06/06 07:51:31;;;;;;;18.40;9.73;;;20.60;67.50;;;;;;4850190;29;20498;-93
2023/06/06 07:53:58;;;;;;;15.75;8.80;;;20.80;68.20;;;;;;4850173;29;20169;-93
2023/06/06 07:56:27;;;;;;;15.95;8.68;;;20.80;68.10;;;;;;4865547;29;20101;-93
2023/06/06 07:58:57;;;;;;;17.10;8.00;;;20.80;66.80;;;;;;4850819;29;20147;-93
2023/06/06 08:01:25;;;;;;;15.43;7.20;;;20.90;66.70;;;;;;4851254;29;20097;-93
2023/06/06 08:03:54;;;;;;;14.30;7.90;;;21.00;65.90;;;;;;4850352;29;20061;-93
2023/06/06 08:06:23;;;;;;;14.85;7.72;;;21.00;65.40;;;;;;4850356;29;20060;-93
2023/06/06 08:08:51;;;;;;;15.25;7.25;;;21.10;65.50;;;;;;4852401;29;20388;-92
2023/06/06 08:11:19;;;;;;;16.30;8.20;;;21.10;65.80;;;;;;4852198;29;20053;-93
2023/06/06 08:13:46;;;;;;;12.87;6.93;;;21.30;64.90;;;;;;4852669;29;20396;-93
2023/06/06 08:16:13;;;;;;;13.80;6.82;;;21.30;64.60;;;;;;4886009;29;20055;-94
2023/06/06 08:18:40;;;;;;;15.95;7.28;;;21.30;63.90;;;;;;4901790;29;20048;-90
2023/06/06 08:21:08;;;;;;;12.30;6.82;;;21.30;64.10;;;;;;4886133;29;20084;-93
2023/06/06 08:23:35;;;;;;;19.17;9.68;;;21.30;64.50;;;;;;4867872;29;20073;-93
2023/06/06 08:26:02;;;;;;;17.00;8.77;;;21.30;64.70;;;;;;4833656;29;20065;-93
2023/06/06 08:28:30;;;;;;;15.45;8.00;;;21.50;64.80;;;;;;4865955;29;20071;-95
2023/06/06 08:30:57;;;;;;;21.60;11.75;;;21.50;63.60;;;;;;4886323;29;20054;-93
2023/06/06 08:33:25;;;;;;;22.35;11.43;;;21.50;65.60;;;;;;4886297;29;20087;-93
2023/06/06 08:35:52;;;;;;;30.42;19.55;;;21.50;65.70;;;;;;4871218;29;20083;-93
2023/06/06 08:38:21;;;;;;;20.80;12.80;;;21.50;65.00;;;;;;4886321;29;20407;-93
2023/06/06 08:40:53;;;;;;;18.23;10.23;;;21.50;65.70;;;;;;4885577;29;20084;-93
2023/06/06 08:43:23;;;;;;;17.20;8.18;;;21.60;66.30;;;;;;4885872;29;20104;-92
2023/06/06 08:45:56;;;;;;;15.32;6.28;;;21.70;64.90;;;;;;4860697;29;20053;-92
2023/06/06 08:48:28;;;;;;;19.45;7.20;;;21.90;62.20;;;;;;4852202;29;20152;-92
2023/06/06 08:50:57;;;;;;;12.30;6.20;;;22.00;61.70;;;;;;4884488;29;20049;-92
2023/06/06 08:53:25;;;;;;;11.65;6.35;;;22.00;61.40;;;;;;4851571;29;20080;-93
2023/06/06 08:55:57;;;;;;;13.70;6.32;;;22.10;60.80;;;;;;4851586;29;20464;-93
2023/06/06 08:58:25;;;;;;;12.82;6.13;;;22.20;60.70;;;;;;4851419;29;20105;-91
2023/06/06 09:00:56;;;;;;;17.75;5.55;;;22.30;59.90;;;;;;4866738;29;20534;-94
2023/06/06 09:03:24;;;;;;;10.07;4.77;;;22.30;59.10;;;;;;4851411;29;20139;-94
2023/06/06 09:05:52;;;;;;;10.60;4.72;;;22.20;59.60;;;;;;4851242;29;20064;-93
2023/06/06 09:08:19;;;;;;;13.48;7.50;;;22.20;60.10;;;;;;4851199;29;20045;-91
2023/06/06 09:10:46;;;;;;;27.45;12.40;;;22.20;61.70;;;;;;4874691;29;20147;-91
2023/06/06 09:13:14;;;;;;;24.33;12.20;;;22.10;65.00;;;;;;4871411;29;20055;-91
2023/06/06 09:15:44;;;;;;;22.50;11.50;;;22.10;65.30;;;;;;4871534;29;20072;-91
2023/06/06 09:18:13;;;;;;;21.77;10.23;;;22.10;63.80;;;;;;4871083;29;20153;-92
2023/06/06 09:20:52;;;;;;;11.15;4.47;;;22.20;63.90;;;;;;4866504;29;20049;-91
2023/06/06 09:23:20;;;;;;;8.27;3.78;;;22.20;59.70;;;;;;4881346;29;20048;-94
2023/06/06 09:25:47;;;;;;;9.25;3.83;;;22.10;60.20;;;;;;4900208;29;20101;-94
2023/06/06 09:28:15;;;;;;;8.60;4.07;;;22.10;59.50;;;;;;4884721;29;20052;-92
2023/06/06 09:30:42;;;;;;;8.88;4.15;;;22.10;59.70;;;;;;4885603;29;20063;-94
2023/06/06 09:40:44;;;;;;;8.40;4.05;;;22.50;60.70;;;;;;4863062;29;20086;-92
2023/06/06 09:43:12;;;;;;;11.93;3.97;;;22.60;58.30;;;;;;4832637;29;20057;-94
2023/06/06 09:46:04;;;;;;;10.68;3.90;;;22.70;58.30;;;;;;4848048;29;20539;-96
2023/06/06 09:48:32;;;;;;;7.97;3.50;;;22.80;57.80;;;;;;4848002;29;20065;-95
2023/06/06 09:50:59;;;;;;;9.57;3.70;;;23.00;56.40;;;;;;4847949;29;20080;-96
2023/06/06 09:53:28;;;;;;;9.55;3.85;;;23.00;55.70;;;;;;4847762;29;20049;-94
2023/06/06 09:56:02;;;;;;;9.47;4.27;;;23.10;58.00;;;;;;4832721;29;20042;-95
2023/06/06 09:58:33;;;;;;;10.30;4.00;;;23.30;56.80;;;;;;4848695;29;20046;-94
2023/06/06 10:05:46;;;;;;;7.53;2.60;;;23.40;56.60;;;;;;4811144;29;20054;-96
2023/06/06 10:13:16;;;;;;;6.93;2.93;;;22.80;55.70;;;;;;4793788;29;20159;-94
2023/06/06 10:15:54;;;;;;;6.65;3.05;;;22.50;57.10;;;;;;4778870;29;20513;-96
2023/06/06 10:18:29;;;;;;;6.80;2.80;;;22.30;57.90;;;;;;4790787;29;20059;-96
2023/06/06 10:21:05;;;;;;;6.47;2.88;;;22.20;56.70;;;;;;4793799;29;20107;-95
2023/06/06 10:23:41;;;;;;;8.00;3.28;;;22.10;58.20;;;;;;4778986;29;20047;-95
2023/06/06 10:26:22;;;;;;;7.07;2.70;;;22.20;57.80;;;;;;4793369;29;20152;-96
2023/06/06 10:28:59;;;;;;;7.05;2.47;;;22.30;58.20;;;;;;4778896;29;20061;-94
2023/06/06 10:31:35;;;;;;;8.07;3.50;;;22.50;58.00;;;;;;4792481;29;20426;-95
2023/06/06 10:34:32;;;;;;;7.30;3.45;;;22.60;58.10;;;;;;4783819;29;20051;-95
2023/06/06 10:37:22;;;;;;;8.13;3.53;;;22.60;58.10;;;;;;4857484;29;20045;-96
2023/06/06 10:40:09;;;;;;;10.53;3.43;;;22.60;59.40;;;;;;4841068;29;20073;-93
2023/06/06 10:42:39;;;;;;;10.27;3.42;;;22.60;60.00;;;;;;4833481;29;20137;-92
2023/06/06 10:45:07;;;;;;;17.75;3.90;;;22.60;60.20;;;;;;4847691;29;20072;-94
2023/06/06 10:47:40;;;;;;;12.52;3.95;;;22.60;60.10;;;;;;4834972;29;20068;-93
2023/06/06 10:50:11;;;;;;;8.43;3.45;;;22.60;61.20;;;;;;4833270;29;20461;-93
2023/06/06 10:53:07;;;;;;;8.00;3.50;;;22.50;59.90;;;;;;4848249;29;20050;-93
2023/06/06 10:55:44;;;;;;;6.88;3.20;;;22.50;60.90;;;;;;4850118;29;20504;-93
2023/06/06 10:58:32;;;;;;;10.93;3.60;;;22.50;61.20;;;;;;4832655;29;20046;-93
2023/06/06 11:01:02;;;;;;;12.05;3.67;;;22.60;62.30;;;;;;4833363;29;20057;-93
2023/06/06 11:03:40;;;;;;;8.20;3.45;;;22.60;63.70;;;;;;4833748;29;20045;-93
2023/06/06 11:06:14;;;;;;;8.13;3.40;;;22.60;63.30;;;;;;4833712;29;20053;-93
2023/06/06 11:08:58;;;;;;;7.97;3.40;;;22.80;62.10;;;;;;4834612;29;20045;-93
2023/06/06 11:11:34;;;;;;;9.68;3.88;;;22.80;61.70;;;;;;4833960;29;20081;-93
2023/06/06 11:14:03;;;;;;;6.75;3.45;;;22.60;62.20;;;;;;4848199;29;20079;-93
2023/06/06 11:16:43;;;;;;;11.02;3.60;;;22.50;62.20;;;;;;4847983;29;20053;-92
2023/06/06 11:19:19;;;;;;;9.20;3.50;;;22.40;63.40;;;;;;4835718;29;20504;-93
2023/06/06 11:21:49;;;;;;;9.55;4.40;;;22.30;62.80;;;;;;4835855;29;20407;-92
2023/06/06 11:24:21;;;;;;;7.75;4.00;;;22.40;64.30;;;;;;4836084;29;20064;-93
2023/06/06 11:26:53;;;;;;;10.25;3.78;;;22.50;64.40;;;;;;4852814;29;20057;-93
2023/06/06 11:29:23;;;;;;;9.05;3.47;;;22.50;63.90;;;;;;4851485;29;20177;-92
2023/06/06 11:31:50;;;;;;;8.53;3.50;;;22.60;63.90;;;;;;4835916;29;20053;-94
2023/06/06 11:34:18;;;;;;;7.30;3.17;;;22.80;62.60;;;;;;4837430;29;20102;-93
2023/06/06 11:36:51;;;;;;;8.68;3.60;;;22.90;62.20;;;;;;4853025;29;20054;-93
2023/06/06 11:39:20;;;;;;;6.70;2.95;;;22.90;62.10;;;;;;4835760;29;20075;-93
2023/06/06 11:41:52;;;;;;;7.82;3.10;;;22.90;62.40;;;;;;4833131;29;20089;-93
2023/06/06 11:44:19;;;;;;;8.07;2.90;;;22.90;61.20;;;;;;4853532;29;20049;-92
2023/06/06 11:46:52;;;;;;;6.35;2.90;;;23.00;60.90;;;;;;4851194;29;20147;-93
2023/06/06 11:49:21;;;;;;;8.00;3.28;;;23.00;61.00;;;;;;4849118;29;20053;-92
2023/06/06 11:51:56;;;;;;;34.60;3.85;;;23.20;60.70;;;;;;4848450;29;20074;-92
2023/06/06 11:54:24;;;;;;;6.63;2.80;;;23.40;60.40;;;;;;4849096;29;20110;-92
2023/06/06 11:57:01;;;;;;;5.97;2.47;;;23.60;58.90;;;;;;4849570;29;20065;-94
2023/06/06 11:59:30;;;;;;;5.70;2.63;;;23.50;58.90;;;;;;4835012;29;20096;-93
2023/06/06 12:01:58;;;;;;;6.05;2.47;;;23.60;59.00;;;;;;4835467;29;20057;-94
2023/06/06 12:04:28;;;;;;;5.70;2.13;;;23.80;57.60;;;;;;4850157;29;20057;-93
2023/06/06 12:06:58;;;;;;;5.85;2.42;;;23.90;57.40;;;;;;4834886;29;20117;-93
2023/06/06 12:09:27;;;;;;;7.47;3.20;;;23.80;57.00;;;;;;4833979;29;20511;-93
2023/06/06 12:11:56;;;;;;;9.75;4.95;;;23.70;57.40;;;;;;4834155;29;20041;-93
2023/06/06 12:14:25;;;;;;;12.73;6.00;;;23.60;60.00;;;;;;4832614;29;20522;-93
2023/06/06 12:17:03;;;;;;;12.55;6.10;;;23.40;60.40;;;;;;4846524;29;20084;-93
2023/06/06 12:19:31;;;;;;;11.57;3.90;;;23.30;61.40;;;;;;4848278;29;20050;-92
2023/06/06 12:21:59;;;;;;;9.80;4.67;;;23.20;61.20;;;;;;4847395;29;20054;-93
2023/06/06 12:24:29;;;;;;;8.45;4.20;;;23.10;60.80;;;;;;4847448;29;20045;-91
2023/06/06 12:27:02;;;;;;;9.98;4.65;;;23.20;60.70;;;;;;4845265;29;20124;-92
2023/06/06 12:29:35;;;;;;;8.80;4.50;;;23.40;59.90;;;;;;4846134;29;20054;-91
2023/06/06 12:32:21;;;;;;;10.02;4.50;;;23.50;58.20;;;;;;4855438;29;20061;-96
2023/06/06 12:35:02;;;;;;;9.43;4.30;;;23.60;59.90;;;;;;4839909;29;20065;-96
2023/06/06 12:37:46;;;;;;;9.27;4.22;;;23.80;58.60;;;;;;4849542;29;20049;-94
2023/06/06 12:48:03;;;;;;;6.72;2.78;;;23.20;59.10;;;;;;5202522;23;20142;-96
2023/06/06 12:50:32;;;;;;;5.60;1.90;;;23.50;56.20;;;;;;4840121;29;20054;-96
2023/06/06 12:53:04;;;;;;;5.55;2.33;;;23.50;54.50;;;;;;4838268;29;20041;-96
2023/06/06 12:55:32;;;;;;;6.75;2.60;;;23.40;54.80;;;;;;4838074;29;20385;-96
2023/06/06 12:58:02;;;;;;;8.07;3.05;;;23.60;56.20;;;;;;4837268;29;20416;-96
2023/06/06 13:00:34;;;;;;;7.68;3.03;;;23.60;54.50;;;;;;4842060;29;20061;-96
2023/06/06 13:03:02;;;;;;;6.97;2.40;;;23.70;54.70;;;;;;4854039;29;20056;-96
2023/06/06 13:05:35;;;;;;;6.15;2.35;;;23.70;55.70;;;;;;4855073;29;20117;-96
2023/06/06 13:12:32;;;;;;;6.85;2.10;;;23.50;54.10;;;;;;4869545;29;20068;-93
2023/06/06 13:15:00;;;;;;;5.50;2.10;;;23.60;55.00;;;;;;4841453;29;20046;-95
2023/06/06 13:17:36;;;;;;;6.33;2.03;;;23.70;55.20;;;;;;4851032;29;20046;-96
2023/06/06 13:24:32;;;;;;;7.20;2.20;;;23.60;54.40;;;;;;4878943;29;20060;-96
2023/06/06 13:27:03;;;;;;;7.47;2.22;;;23.50;57.10;;;;;;4852346;29;20049;-96